sensor_id;sensor_type;location;lat;lon;timestamp;temperature;humidity
19945;DHT22;10134;50.952;6.930;2022-12-17T00:00:48;0.10;99.90
19945;DHT22;10134;50.952;6.930;2022-12-17T00:03:35;0.10;99.90
19945;DHT22;10134;50.952;6.930;2022-12-17T00:06:23;0.10;99.90
19945;DHT22;10134;50.952;6.930;2022-12-17T00:09:08;0.10;99.90
19945;DHT22;10134;50.952;6.930;2022-12-17T00:11:54;0.10;99.90
19945;DHT22;10134;50.952;6.930;2022-12-17T00:14:40;0.10;99.90
19945;DHT22;10134;50.952;6.930;2022-12-17T00:17:26;0.10;99.90
19945;DHT22;10134;50.952;6.930;2022-12-17T00:20:12;0.00;99.90
19945;DHT22;10134;50.952;6.930;2022-12-17T00:22:59;0.00;99.90
19945;DHT22;10134;50.952;6.930;2022-12-17T00:25:52;0.00;99.90
19945;DHT22;10134;50.952;6.930;2022-12-17T00:28:38;0.00;99.90
19945;DHT22;10134;50.952;6.930;2022-12-17T00:31:29;0.00;99.90
19945;DHT22;10134;50.952;6.930;2022-12-17T00:34:15;0.00;99.90
19945;DHT22;10134;50.952;6.930;2022-12-17T00:37:00;0.10;99.90
19945;DHT22;10134;50.952;6.930;2022-12-17T00:39:46;0.10;99.90
19945;DHT22;10134;50.952;6.930;2022-12-17T00:42:32;0.10;99.90
19945;DHT22;10134;50.952;6.930;2022-12-17T00:45:22;0.10;99.90
19945;DHT22;10134;50.952;6.930;2022-12-17T00:48:08;0.10;99.90
19945;DHT22;10134;50.952;6.930;2022-12-17T00:50:54;0.10;99.90
19945;DHT22;10134;50.952;6.930;2022-12-17T00:53:40;0.10;99.90
19945;DHT22;10134;50.952;6.930;2022-12-17T00:56:25;0.10;99.90
19945;DHT22;10134;50.952;6.930;2022-12-17T00:59:11;0.10;99.90
19945;DHT22;10134;50.952;6.930;2022-12-17T01:01:58;0.10;99.90
19945;DHT22;10134;50.952;6.930;2022-12-17T01:04:45;0.10;99.90
19945;DHT22;10134;50.952;6.930;2022-12-17T01:07:31;0.10;99.90
19945;DHT22;10134;50.952;6.930;2022-12-17T01:10:17;0.10;99.90
19945;DHT22;10134;50.952;6.930;2022-12-17T01:13:03;0.10;99.90
19945;DHT22;10134;50.952;6.930;2022-12-17T01:15:50;0.10;99.90
19945;DHT22;10134;50.952;6.930;2022-12-17T01:18:37;0.10;99.90
19945;DHT22;10134;50.952;6.930;2022-12-17T01:21:22;0.10;99.90
19945;DHT22;10134;50.952;6.930;2022-12-17T01:24:08;0.20;99.90
19945;DHT22;10134;50.952;6.930;2022-12-17T01:26:54;0.20;99.90
19945;DHT22;10134;50.952;6.930;2022-12-17T01:29:40;0.20;99.90
19945;DHT22;10134;50.952;6.930;2022-12-17T01:32:26;0.20;99.90
19945;DHT22;10134;50.952;6.930;2022-12-17T01:35:11;0.10;99.90
19945;DHT22;10134;50.952;6.930;2022-12-17T01:37:57;0.20;99.90
19945;DHT22;10134;50.952;6.930;2022-12-17T01:40:43;0.10;99.90
19945;DHT22;10134;50.952;6.930;2022-12-17T01:43:34;0.10;99.90
19945;DHT22;10134;50.952;6.930;2022-12-17T01:46:20;0.10;99.90
19945;DHT22;10134;50.952;6.930;2022-12-17T01:49:08;0.20;99.90
19945;DHT22;10134;50.952;6.930;2022-12-17T01:51:56;0.10;99.90
19945;DHT22;10134;50.952;6.930;2022-12-17T01:54:43;0.10;99.90
19945;DHT22;10134;50.952;6.930;2022-12-17T01:57:29;0.10;99.90
19945;DHT22;10134;50.952;6.930;2022-12-17T02:00:16;0.10;99.90
19945;DHT22;10134;50.952;6.930;2022-12-17T02:03:03;0.10;99.90
19945;DHT22;10134;50.952;6.930;2022-12-17T02:09:03;0.10;99.90
19945;DHT22;10134;50.952;6.930;2022-12-17T02:12:16;0.10;99.90
19945;DHT22;10134;50.952;6.930;2022-12-17T02:15:23;0.10;99.90
19945;DHT22;10134;50.952;6.930;2022-12-17T02:18:20;0.10;99.90
19945;DHT22;10134;50.952;6.930;2022-12-17T02:21:07;0.10;99.90
19945;DHT22;10134;50.952;6.930;2022-12-17T02:26:53;0.00;99.90
19945;DHT22;10134;50.952;6.930;2022-12-17T02:30:04;0.00;99.90
19945;DHT22;10134;50.952;6.930;2022-12-17T02:32:50;0.00;99.90
19945;DHT22;10134;50.952;6.930;2022-12-17T02:35:46;0.00;99.90
19945;DHT22;10134;50.952;6.930;2022-12-17T02:38:33;0.00;99.90
19945;DHT22;10134;50.952;6.930;2022-12-17T02:44:18;0.00;99.90
19945;DHT22;10134;50.952;6.930;2022-12-17T02:47:07;0.00;99.90
19945;DHT22;10134;50.952;6.930;2022-12-17T02:49:55;0.00;99.90
19945;DHT22;10134;50.952;6.930;2022-12-17T02:52:47;0.00;99.90
19945;DHT22;10134;50.952;6.930;2022-12-17T02:55:34;0.00;99.90
19945;DHT22;10134;50.952;6.930;2022-12-17T02:58:21;0.00;99.90
19945;DHT22;10134;50.952;6.930;2022-12-17T03:01:07;-0.10;99.90
19945;DHT22;10134;50.952;6.930;2022-12-17T03:03:54;-0.10;99.90
19945;DHT22;10134;50.952;6.930;2022-12-17T03:06:40;-0.10;99.90
19945;DHT22;10134;50.952;6.930;2022-12-17T03:09:26;-0.10;99.90
19945;DHT22;10134;50.952;6.930;2022-12-17T03:12:12;-0.10;99.90
19945;DHT22;10134;50.952;6.930;2022-12-17T03:14:58;-0.10;99.90
19945;DHT22;10134;50.952;6.930;2022-12-17T03:17:44;-0.10;99.90
19945;DHT22;10134;50.952;6.930;2022-12-17T03:20:29;-0.10;99.90
19945;DHT22;10134;50.952;6.930;2022-12-17T03:23:15;-0.10;99.90
19945;DHT22;10134;50.952;6.930;2022-12-17T03:26:02;-0.10;99.90
19945;DHT22;10134;50.952;6.930;2022-12-17T03:28:48;-0.20;99.90
19945;DHT22;10134;50.952;6.930;2022-12-17T03:31:34;-0.20;99.90
19945;DHT22;10134;50.952;6.930;2022-12-17T03:34:19;-0.10;99.90
19945;DHT22;10134;50.952;6.930;2022-12-17T03:37:05;-0.20;99.90
19945;DHT22;10134;50.952;6.930;2022-12-17T03:39:51;-0.20;99.90
19945;DHT22;10134;50.952;6.930;2022-12-17T03:42:37;-0.20;99.90
19945;DHT22;10134;50.952;6.930;2022-12-17T03:45:23;-0.20;99.90
19945;DHT22;10134;50.952;6.930;2022-12-17T03:48:13;-0.20;99.90
19945;DHT22;10134;50.952;6.930;2022-12-17T03:51:00;-0.20;99.90
19945;DHT22;10134;50.952;6.930;2022-12-17T03:53:46;-0.20;99.90
19945;DHT22;10134;50.952;6.930;2022-12-17T03:56:32;-0.20;99.90
19945;DHT22;10134;50.952;6.930;2022-12-17T03:59:18;-0.20;99.90
19945;DHT22;10134;50.952;6.930;2022-12-17T04:02:04;-0.30;99.90
19945;DHT22;10134;50.952;6.930;2022-12-17T04:04:50;-0.30;99.90
19945;DHT22;10134;50.952;6.930;2022-12-17T04:07:42;-0.30;99.90
19945;DHT22;10134;50.952;6.930;2022-12-17T04:10:28;-0.30;99.90
19945;DHT22;10134;50.952;6.930;2022-12-17T04:13:14;-0.30;99.90
19945;DHT22;10134;50.952;6.930;2022-12-17T04:16:07;-0.30;99.90
19945;DHT22;10134;50.952;6.930;2022-12-17T04:18:53;-0.40;99.90
19945;DHT22;10134;50.952;6.930;2022-12-17T04:21:39;-0.40;99.90
19945;DHT22;10134;50.952;6.930;2022-12-17T04:24:45;-0.40;99.90
19945;DHT22;10134;50.952;6.930;2022-12-17T04:27:30;-0.50;99.90
19945;DHT22;10134;50.952;6.930;2022-12-17T04:30:16;-0.40;99.90
19945;DHT22;10134;50.952;6.930;2022-12-17T04:33:02;-0.50;99.90
19945;DHT22;10134;50.952;6.930;2022-12-17T04:35:48;-0.50;99.90
19945;DHT22;10134;50.952;6.930;2022-12-17T04:38:33;-0.50;99.90
19945;DHT22;10134;50.952;6.930;2022-12-17T04:41:19;-0.50;99.90
19945;DHT22;10134;50.952;6.930;2022-12-17T04:44:05;-0.50;99.90
19945;DHT22;10134;50.952;6.930;2022-12-17T04:46:51;-0.50;99.90
19945;DHT22;10134;50.952;6.930;2022-12-17T04:49:37;-0.50;99.90
19945;DHT22;10134;50.952;6.930;2022-12-17T04:52:22;-0.50;99.90
19945;DHT22;10134;50.952;6.930;2022-12-17T04:55:08;-0.50;99.90
19945;DHT22;10134;50.952;6.930;2022-12-17T04:57:59;-0.60;99.90
19945;DHT22;10134;50.952;6.930;2022-12-17T05:00:45;-0.60;99.90
19945;DHT22;10134;50.952;6.930;2022-12-17T05:03:35;-0.60;99.90
19945;DHT22;10134;50.952;6.930;2022-12-17T05:06:22;-0.70;99.90
19945;DHT22;10134;50.952;6.930;2022-12-17T05:09:08;-0.70;99.90
19945;DHT22;10134;50.952;6.930;2022-12-17T05:11:54;-0.70;99.90
19945;DHT22;10134;50.952;6.930;2022-12-17T05:14:42;-0.70;99.90
19945;DHT22;10134;50.952;6.930;2022-12-17T05:17:29;-0.80;99.90
19945;DHT22;10134;50.952;6.930;2022-12-17T05:20:17;-0.80;99.90
19945;DHT22;10134;50.952;6.930;2022-12-17T05:23:05;-0.80;99.90
19945;DHT22;10134;50.952;6.930;2022-12-17T05:26:04;-0.80;99.90
19945;DHT22;10134;50.952;6.930;2022-12-17T05:28:50;-0.80;99.90
19945;DHT22;10134;50.952;6.930;2022-12-17T05:31:42;-0.90;99.90
19945;DHT22;10134;50.952;6.930;2022-12-17T05:34:27;-0.90;99.90
19945;DHT22;10134;50.952;6.930;2022-12-17T05:37:13;-0.90;99.90
19945;DHT22;10134;50.952;6.930;2022-12-17T05:39:59;-0.90;99.90
19945;DHT22;10134;50.952;6.930;2022-12-17T05:42:59;-0.90;99.90
19945;DHT22;10134;50.952;6.930;2022-12-17T05:45:46;-0.90;99.90
19945;DHT22;10134;50.952;6.930;2022-12-17T05:48:33;-0.90;99.90
19945;DHT22;10134;50.952;6.930;2022-12-17T05:51:23;-0.90;99.90
19945;DHT22;10134;50.952;6.930;2022-12-17T05:54:09;-1.00;99.90
19945;DHT22;10134;50.952;6.930;2022-12-17T05:56:55;-1.00;99.90
19945;DHT22;10134;50.952;6.930;2022-12-17T05:59:41;-1.00;99.90
19945;DHT22;10134;50.952;6.930;2022-12-17T06:02:27;-1.00;99.90
19945;DHT22;10134;50.952;6.930;2022-12-17T06:05:13;-1.10;99.90
19945;DHT22;10134;50.952;6.930;2022-12-17T06:08:06;-1.10;99.90
19945;DHT22;10134;50.952;6.930;2022-12-17T06:10:53;-1.10;99.90
19945;DHT22;10134;50.952;6.930;2022-12-17T06:13:39;-1.10;99.90
19945;DHT22;10134;50.952;6.930;2022-12-17T06:16:25;-1.10;99.90
19945;DHT22;10134;50.952;6.930;2022-12-17T06:19:11;-1.10;99.90
19945;DHT22;10134;50.952;6.930;2022-12-17T06:21:56;-1.10;99.90
19945;DHT22;10134;50.952;6.930;2022-12-17T06:24:42;-1.10;99.90
19945;DHT22;10134;50.952;6.930;2022-12-17T06:27:28;-1.20;99.90
19945;DHT22;10134;50.952;6.930;2022-12-17T06:30:14;-1.20;99.90
19945;DHT22;10134;50.952;6.930;2022-12-17T06:33:16;-1.20;99.90
19945;DHT22;10134;50.952;6.930;2022-12-17T06:36:03;-1.30;99.90
19945;DHT22;10134;50.952;6.930;2022-12-17T06:38:49;-1.30;99.90
19945;DHT22;10134;50.952;6.930;2022-12-17T06:41:35;-1.30;99.90
19945;DHT22;10134;50.952;6.930;2022-12-17T06:44:30;-1.30;99.90
19945;DHT22;10134;50.952;6.930;2022-12-17T06:47:16;-1.40;99.90
19945;DHT22;10134;50.952;6.930;2022-12-17T06:50:03;-1.40;99.90
19945;DHT22;10134;50.952;6.930;2022-12-17T06:53:03;-1.40;99.90
19945;DHT22;10134;50.952;6.930;2022-12-17T06:55:50;-1.40;99.90
19945;DHT22;10134;50.952;6.930;2022-12-17T06:58:36;-1.50;99.90
19945;DHT22;10134;50.952;6.930;2022-12-17T07:01:21;-1.60;99.90
19945;DHT22;10134;50.952;6.930;2022-12-17T07:04:08;-1.60;99.90
19945;DHT22;10134;50.952;6.930;2022-12-17T07:06:53;-1.60;99.90
19945;DHT22;10134;50.952;6.930;2022-12-17T07:09:39;-1.60;99.90
19945;DHT22;10134;50.952;6.930;2022-12-17T07:12:25;-1.70;99.90
19945;DHT22;10134;50.952;6.930;2022-12-17T07:15:11;-1.70;99.90
19945;DHT22;10134;50.952;6.930;2022-12-17T07:18:01;-1.70;99.90
19945;DHT22;10134;50.952;6.930;2022-12-17T07:20:48;-1.70;99.90
19945;DHT22;10134;50.952;6.930;2022-12-17T07:23:37;-1.70;99.90
19945;DHT22;10134;50.952;6.930;2022-12-17T07:26:23;-1.70;99.90
19945;DHT22;10134;50.952;6.930;2022-12-17T07:29:08;-1.80;99.90
19945;DHT22;10134;50.952;6.930;2022-12-17T07:31:54;-1.80;99.90
19945;DHT22;10134;50.952;6.930;2022-12-17T07:34:40;-1.90;99.90
19945;DHT22;10134;50.952;6.930;2022-12-17T07:37:26;-1.90;99.90
19945;DHT22;10134;50.952;6.930;2022-12-17T07:40:12;-1.90;99.90
19945;DHT22;10134;50.952;6.930;2022-12-17T07:42:57;-1.90;99.90
19945;DHT22;10134;50.952;6.930;2022-12-17T07:45:43;-2.00;99.90
19945;DHT22;10134;50.952;6.930;2022-12-17T07:48:29;-2.10;99.90
19945;DHT22;10134;50.952;6.930;2022-12-17T07:51:14;-2.10;99.90
19945;DHT22;10134;50.952;6.930;2022-12-17T07:54:00;-2.00;99.90
19945;DHT22;10134;50.952;6.930;2022-12-17T07:56:46;-2.00;99.90
19945;DHT22;10134;50.952;6.930;2022-12-17T07:59:31;-2.00;99.90
19945;DHT22;10134;50.952;6.930;2022-12-17T08:02:17;-2.00;99.90
19945;DHT22;10134;50.952;6.930;2022-12-17T08:05:03;-2.10;99.90
19945;DHT22;10134;50.952;6.930;2022-12-17T08:07:49;-2.10;99.90
19945;DHT22;10134;50.952;6.930;2022-12-17T08:10:35;-2.10;99.90
19945;DHT22;10134;50.952;6.930;2022-12-17T08:13:21;-2.10;99.90
19945;DHT22;10134;50.952;6.930;2022-12-17T08:16:07;-2.10;99.90
19945;DHT22;10134;50.952;6.930;2022-12-17T08:18:52;-2.10;99.90
19945;DHT22;10134;50.952;6.930;2022-12-17T08:21:38;-2.10;99.90
19945;DHT22;10134;50.952;6.930;2022-12-17T08:24:24;-2.10;99.90
19945;DHT22;10134;50.952;6.930;2022-12-17T08:27:10;-2.10;99.90
19945;DHT22;10134;50.952;6.930;2022-12-17T08:29:55;-2.10;99.90
19945;DHT22;10134;50.952;6.930;2022-12-17T08:32:41;-2.10;99.90
19945;DHT22;10134;50.952;6.930;2022-12-17T08:35:28;-2.00;99.90
19945;DHT22;10134;50.952;6.930;2022-12-17T08:38:14;-2.00;99.90
19945;DHT22;10134;50.952;6.930;2022-12-17T08:41:00;-2.00;99.90
19945;DHT22;10134;50.952;6.930;2022-12-17T08:43:46;-2.00;99.90
19945;DHT22;10134;50.952;6.930;2022-12-17T08:46:35;-1.90;99.90
19945;DHT22;10134;50.952;6.930;2022-12-17T08:49:21;-1.90;99.90
19945;DHT22;10134;50.952;6.930;2022-12-17T08:52:06;-1.90;99.90
19945;DHT22;10134;50.952;6.930;2022-12-17T08:54:52;-1.90;99.90
19945;DHT22;10134;50.952;6.930;2022-12-17T08:57:38;-1.80;99.90
19945;DHT22;10134;50.952;6.930;2022-12-17T09:00:23;-1.80;99.90
19945;DHT22;10134;50.952;6.930;2022-12-17T09:03:23;-1.90;99.90
19945;DHT22;10134;50.952;6.930;2022-12-17T09:06:10;-1.80;99.90
19945;DHT22;10134;50.952;6.930;2022-12-17T09:09:02;-1.80;99.90
19945;DHT22;10134;50.952;6.930;2022-12-17T09:11:48;-1.80;99.90
19945;DHT22;10134;50.952;6.930;2022-12-17T09:14:33;-1.70;99.90
19945;DHT22;10134;50.952;6.930;2022-12-17T09:17:19;-1.70;99.90
19945;DHT22;10134;50.952;6.930;2022-12-17T09:20:05;-1.70;99.90
19945;DHT22;10134;50.952;6.930;2022-12-17T09:22:56;-1.60;99.90
19945;DHT22;10134;50.952;6.930;2022-12-17T09:25:42;-1.60;99.90
19945;DHT22;10134;50.952;6.930;2022-12-17T09:28:28;-1.60;99.90
19945;DHT22;10134;50.952;6.930;2022-12-17T09:31:16;-1.60;99.90
19945;DHT22;10134;50.952;6.930;2022-12-17T09:34:03;-1.60;99.90
19945;DHT22;10134;50.952;6.930;2022-12-17T09:36:49;-1.60;99.90
19945;DHT22;10134;50.952;6.930;2022-12-17T09:39:35;-1.60;99.90
19945;DHT22;10134;50.952;6.930;2022-12-17T09:42:48;-1.60;99.90
19945;DHT22;10134;50.952;6.930;2022-12-17T09:48:55;-1.50;99.90
19945;DHT22;10134;50.952;6.930;2022-12-17T09:51:41;-1.50;99.90
19945;DHT22;10134;50.952;6.930;2022-12-17T09:54:32;-1.50;99.90
19945;DHT22;10134;50.952;6.930;2022-12-17T09:57:30;-1.50;99.90
19945;DHT22;10134;50.952;6.930;2022-12-17T10:00:27;-1.50;99.90
19945;DHT22;10134;50.952;6.930;2022-12-17T10:03:16;-1.50;99.90
19945;DHT22;10134;50.952;6.930;2022-12-17T10:06:12;-1.50;99.90
19945;DHT22;10134;50.952;6.930;2022-12-17T10:09:08;-1.40;99.90
19945;DHT22;10134;50.952;6.930;2022-12-17T10:11:55;-1.40;99.90
19945;DHT22;10134;50.952;6.930;2022-12-17T10:14:41;-1.40;99.90
19945;DHT22;10134;50.952;6.930;2022-12-17T10:17:27;-1.40;99.90
19945;DHT22;10134;50.952;6.930;2022-12-17T10:20:23;-1.40;99.90
19945;DHT22;10134;50.952;6.930;2022-12-17T10:26:22;-1.30;99.90
19945;DHT22;10134;50.952;6.930;2022-12-17T10:29:22;-1.30;99.90
19945;DHT22;10134;50.952;6.930;2022-12-17T10:35:33;-1.30;99.90
19945;DHT22;10134;50.952;6.930;2022-12-17T10:38:22;-1.30;99.90
19945;DHT22;10134;50.952;6.930;2022-12-17T10:41:26;-1.30;99.90
19945;DHT22;10134;50.952;6.930;2022-12-17T10:47:32;-1.20;99.90
19945;DHT22;10134;50.952;6.930;2022-12-17T10:50:22;-1.20;99.90
19945;DHT22;10134;50.952;6.930;2022-12-17T10:53:20;-1.20;99.90
19945;DHT22;10134;50.952;6.930;2022-12-17T10:56:19;-1.20;99.90
19945;DHT22;10134;50.952;6.930;2022-12-17T10:59:31;-1.20;99.90
19945;DHT22;10134;50.952;6.930;2022-12-17T11:02:26;-1.20;99.90
19945;DHT22;10134;50.952;6.930;2022-12-17T11:05:26;-1.20;99.90
19945;DHT22;10134;50.952;6.930;2022-12-17T11:08:14;-1.10;99.90
19945;DHT22;10134;50.952;6.930;2022-12-17T11:11:03;-1.10;99.90
19945;DHT22;10134;50.952;6.930;2022-12-17T11:13:51;-1.10;99.90
19945;DHT22;10134;50.952;6.930;2022-12-17T11:16:42;-1.00;99.90
19945;DHT22;10134;50.952;6.930;2022-12-17T11:19:47;-1.00;99.90
19945;DHT22;10134;50.952;6.930;2022-12-17T11:23:04;-1.00;99.90
19945;DHT22;10134;50.952;6.930;2022-12-17T11:29:11;-0.90;99.90
19945;DHT22;10134;50.952;6.930;2022-12-17T11:35:08;-0.90;99.90
19945;DHT22;10134;50.952;6.930;2022-12-17T11:38:28;-0.90;99.90
19945;DHT22;10134;50.952;6.930;2022-12-17T11:41:56;-0.90;99.90
19945;DHT22;10134;50.952;6.930;2022-12-17T11:48:35;-1.00;99.90
19945;DHT22;10134;50.952;6.930;2022-12-17T11:51:55;-1.00;99.90
19945;DHT22;10134;50.952;6.930;2022-12-17T11:54:59;-1.00;99.90
19945;DHT22;10134;50.952;6.930;2022-12-17T11:57:57;-0.90;99.90
19945;DHT22;10134;50.952;6.930;2022-12-17T12:13:47;-0.80;99.90
19945;DHT22;10134;50.952;6.930;2022-12-17T12:20:21;-0.80;99.90
19945;DHT22;10134;50.952;6.930;2022-12-17T12:26:06;-0.70;99.90
19945;DHT22;10134;50.952;6.930;2022-12-17T12:31:53;-0.70;99.90
19945;DHT22;10134;50.952;6.930;2022-12-17T12:34:42;-0.60;99.90
19945;DHT22;10134;50.952;6.930;2022-12-17T12:37:30;-0.60;99.90
19945;DHT22;10134;50.952;6.930;2022-12-17T12:40:26;-0.70;99.90
19945;DHT22;10134;50.952;6.930;2022-12-17T12:43:22;-0.60;99.90
19945;DHT22;10134;50.952;6.930;2022-12-17T12:46:17;-0.60;99.90
19945;DHT22;10134;50.952;6.930;2022-12-17T12:52:33;-0.50;99.90
19945;DHT22;10134;50.952;6.930;2022-12-17T12:55:19;-0.50;99.90
19945;DHT22;10134;50.952;6.930;2022-12-17T13:01:11;-0.40;99.90
19945;DHT22;10134;50.952;6.930;2022-12-17T13:03:59;-0.40;99.90
19945;DHT22;10134;50.952;6.930;2022-12-17T13:06:50;-0.40;99.90
19945;DHT22;10134;50.952;6.930;2022-12-17T13:09:35;-0.40;99.90
19945;DHT22;10134;50.952;6.930;2022-12-17T13:14:43;-0.40;99.90
19945;DHT22;10134;50.952;6.930;2022-12-17T13:19:44;-0.40;99.90
19945;DHT22;10134;50.952;6.930;2022-12-17T13:24:51;-0.30;99.90
19945;DHT22;10134;50.952;6.930;2022-12-17T13:41:32;-0.40;99.90
19945;DHT22;10134;50.952;6.930;2022-12-17T13:46:45;-0.40;99.90
19945;DHT22;10134;50.952;6.930;2022-12-17T13:49:25;-0.40;99.90
19945;DHT22;10134;50.952;6.930;2022-12-17T13:52:16;-0.40;99.90
19945;DHT22;10134;50.952;6.930;2022-12-17T13:54:43;-0.40;99.90
19945;DHT22;10134;50.952;6.930;2022-12-17T13:59:55;-0.50;99.90
19945;DHT22;10134;50.952;6.930;2022-12-17T14:02:25;-0.50;99.90
19945;DHT22;10134;50.952;6.930;2022-12-17T14:04:54;-0.50;99.90
19945;DHT22;10134;50.952;6.930;2022-12-17T14:07:25;-0.50;99.90
19945;DHT22;10134;50.952;6.930;2022-12-17T14:09:53;-0.50;99.90
19945;DHT22;10134;50.952;6.930;2022-12-17T14:12:24;-0.50;99.90
19945;DHT22;10134;50.952;6.930;2022-12-17T14:14:58;-0.50;99.90
19945;DHT22;10134;50.952;6.930;2022-12-17T14:17:46;-0.50;99.90
19945;DHT22;10134;50.952;6.930;2022-12-17T14:20:25;-0.60;99.90
19945;DHT22;10134;50.952;6.930;2022-12-17T14:22:58;-0.60;99.90
19945;DHT22;10134;50.952;6.930;2022-12-17T14:25:38;-0.60;99.90
19945;DHT22;10134;50.952;6.930;2022-12-17T14:28:33;-0.60;99.90
19945;DHT22;10134;50.952;6.930;2022-12-17T14:31:09;-0.70;99.90
19945;DHT22;10134;50.952;6.930;2022-12-17T14:34:02;-0.70;99.90
19945;DHT22;10134;50.952;6.930;2022-12-17T14:36:36;-0.70;99.90
19945;DHT22;10134;50.952;6.930;2022-12-17T14:41:45;-0.70;99.90
19945;DHT22;10134;50.952;6.930;2022-12-17T14:44:32;-0.80;99.90
19945;DHT22;10134;50.952;6.930;2022-12-17T14:47:19;-0.80;99.90
19945;DHT22;10134;50.952;6.930;2022-12-17T14:50:25;-0.80;99.90
19945;DHT22;10134;50.952;6.930;2022-12-17T14:52:54;-0.90;99.90
19945;DHT22;10134;50.952;6.930;2022-12-17T14:57:53;-0.90;99.90
19945;DHT22;10134;50.952;6.930;2022-12-17T15:00:21;-0.90;99.90
19945;DHT22;10134;50.952;6.930;2022-12-17T15:02:53;-0.90;99.90
19945;DHT22;10134;50.952;6.930;2022-12-17T15:05:21;-1.00;99.90
19945;DHT22;10134;50.952;6.930;2022-12-17T15:07:49;-1.00;99.90
19945;DHT22;10134;50.952;6.930;2022-12-17T15:10:19;-1.00;99.90
19945;DHT22;10134;50.952;6.930;2022-12-17T15:12:47;-1.10;99.90
19945;DHT22;10134;50.952;6.930;2022-12-17T15:15:17;-1.10;99.90
19945;DHT22;10134;50.952;6.930;2022-12-17T15:17:46;-1.10;99.90
19945;DHT22;10134;50.952;6.930;2022-12-17T15:20:19;-1.10;99.90
19945;DHT22;10134;50.952;6.930;2022-12-17T15:22:47;-1.10;99.90
19945;DHT22;10134;50.952;6.930;2022-12-17T15:25:18;-1.20;99.90
19945;DHT22;10134;50.952;6.930;2022-12-17T15:27:45;-1.20;99.90
19945;DHT22;10134;50.952;6.930;2022-12-17T15:30:15;-1.20;99.90
19945;DHT22;10134;50.952;6.930;2022-12-17T15:32:44;-1.30;99.90
19945;DHT22;10134;50.952;6.930;2022-12-17T15:35:12;-1.30;99.90
19945;DHT22;10134;50.952;6.930;2022-12-17T15:37:40;-1.30;99.90
19945;DHT22;10134;50.952;6.930;2022-12-17T15:40:08;-1.40;99.90
19945;DHT22;10134;50.952;6.930;2022-12-17T15:42:38;-1.40;99.90
19945;DHT22;10134;50.952;6.930;2022-12-17T15:45:32;-1.40;99.90
19945;DHT22;10134;50.952;6.930;2022-12-17T15:48:00;-1.40;99.90
19945;DHT22;10134;50.952;6.930;2022-12-17T15:50:27;-1.40;99.90
19945;DHT22;10134;50.952;6.930;2022-12-17T15:52:55;-1.50;99.90
19945;DHT22;10134;50.952;6.930;2022-12-17T15:55:22;-1.50;99.90
19945;DHT22;10134;50.952;6.930;2022-12-17T15:57:49;-1.50;99.90
19945;DHT22;10134;50.952;6.930;2022-12-17T16:00:17;-1.60;99.90
19945;DHT22;10134;50.952;6.930;2022-12-17T16:02:45;-1.60;99.90
19945;DHT22;10134;50.952;6.930;2022-12-17T16:05:13;-1.60;99.90
19945;DHT22;10134;50.952;6.930;2022-12-17T16:07:40;-1.60;99.90
19945;DHT22;10134;50.952;6.930;2022-12-17T16:10:11;-1.60;99.90
19945;DHT22;10134;50.952;6.930;2022-12-17T16:12:39;-1.70;99.90
19945;DHT22;10134;50.952;6.930;2022-12-17T16:15:07;-1.70;99.90
19945;DHT22;10134;50.952;6.930;2022-12-17T16:17:34;-1.70;99.90
19945;DHT22;10134;50.952;6.930;2022-12-17T16:20:03;-1.70;99.90
19945;DHT22;10134;50.952;6.930;2022-12-17T16:22:31;-1.70;99.90
19945;DHT22;10134;50.952;6.930;2022-12-17T16:24:59;-1.70;99.90
19945;DHT22;10134;50.952;6.930;2022-12-17T16:27:27;-1.80;99.90
19945;DHT22;10134;50.952;6.930;2022-12-17T16:29:54;-1.80;99.90
19945;DHT22;10134;50.952;6.930;2022-12-17T16:32:21;-1.80;99.90
19945;DHT22;10134;50.952;6.930;2022-12-17T16:34:49;-1.80;99.90
19945;DHT22;10134;50.952;6.930;2022-12-17T16:37:16;-1.80;99.90
19945;DHT22;10134;50.952;6.930;2022-12-17T16:39:43;-1.80;99.90
19945;DHT22;10134;50.952;6.930;2022-12-17T16:42:10;-1.80;99.90
19945;DHT22;10134;50.952;6.930;2022-12-17T16:44:38;-1.90;99.90
19945;DHT22;10134;50.952;6.930;2022-12-17T16:47:05;-1.90;99.90
19945;DHT22;10134;50.952;6.930;2022-12-17T16:49:32;-1.90;99.90
19945;DHT22;10134;50.952;6.930;2022-12-17T16:52:00;-1.90;99.90
19945;DHT22;10134;50.952;6.930;2022-12-17T16:54:31;-2.00;99.90
19945;DHT22;10134;50.952;6.930;2022-12-17T16:56:59;-2.00;99.90
19945;DHT22;10134;50.952;6.930;2022-12-17T16:59:27;-2.00;99.90
19945;DHT22;10134;50.952;6.930;2022-12-17T17:01:55;-2.00;99.90
19945;DHT22;10134;50.952;6.930;2022-12-17T17:04:23;-2.00;99.90
19945;DHT22;10134;50.952;6.930;2022-12-17T17:06:54;-2.00;99.90
19945;DHT22;10134;50.952;6.930;2022-12-17T17:09:24;-2.10;99.90
19945;DHT22;10134;50.952;6.930;2022-12-17T17:11:54;-2.10;99.90
19945;DHT22;10134;50.952;6.930;2022-12-17T17:14:23;-2.10;99.90
19945;DHT22;10134;50.952;6.930;2022-12-17T17:16:51;-2.10;99.90
19945;DHT22;10134;50.952;6.930;2022-12-17T17:19:18;-2.10;99.90
19945;DHT22;10134;50.952;6.930;2022-12-17T17:21:49;-2.10;99.90
19945;DHT22;10134;50.952;6.930;2022-12-17T17:24:19;-2.10;99.90
19945;DHT22;10134;50.952;6.930;2022-12-17T17:26:52;-2.20;99.90
19945;DHT22;10134;50.952;6.930;2022-12-17T17:29:19;-2.20;99.90
19945;DHT22;10134;50.952;6.930;2022-12-17T17:31:47;-2.20;99.90
19945;DHT22;10134;50.952;6.930;2022-12-17T17:34:34;-2.20;99.90
19945;DHT22;10134;50.952;6.930;2022-12-17T17:37:02;-2.20;99.90
19945;DHT22;10134;50.952;6.930;2022-12-17T17:39:29;-2.20;99.90
19945;DHT22;10134;50.952;6.930;2022-12-17T17:41:59;-2.20;99.90
19945;DHT22;10134;50.952;6.930;2022-12-17T17:44:27;-2.30;99.90
19945;DHT22;10134;50.952;6.930;2022-12-17T17:46:54;-2.30;99.90
19945;DHT22;10134;50.952;6.930;2022-12-17T17:49:22;-2.30;99.90
19945;DHT22;10134;50.952;6.930;2022-12-17T17:51:52;-2.30;99.90
19945;DHT22;10134;50.952;6.930;2022-12-17T17:54:37;-2.30;99.90
19945;DHT22;10134;50.952;6.930;2022-12-17T17:57:06;-2.30;99.90
19945;DHT22;10134;50.952;6.930;2022-12-17T17:59:33;-2.30;99.90
19945;DHT22;10134;50.952;6.930;2022-12-17T18:02:01;-2.30;99.90
19945;DHT22;10134;50.952;6.930;2022-12-17T18:04:32;-2.30;99.90
19945;DHT22;10134;50.952;6.930;2022-12-17T18:06:59;-2.30;99.90
19945;DHT22;10134;50.952;6.930;2022-12-17T18:09:47;-2.30;99.90
19945;DHT22;10134;50.952;6.930;2022-12-17T18:12:14;-2.30;99.90
19945;DHT22;10134;50.952;6.930;2022-12-17T18:15:00;-2.30;99.90
19945;DHT22;10134;50.952;6.930;2022-12-17T18:17:48;-2.30;99.90
19945;DHT22;10134;50.952;6.930;2022-12-17T18:20:16;-2.40;99.90
19945;DHT22;10134;50.952;6.930;2022-12-17T18:22:44;-2.30;99.90
19945;DHT22;10134;50.952;6.930;2022-12-17T18:25:14;-2.30;99.90
19945;DHT22;10134;50.952;6.930;2022-12-17T18:27:42;-2.30;99.90
19945;DHT22;10134;50.952;6.930;2022-12-17T18:30:10;-2.40;99.90
19945;DHT22;10134;50.952;6.930;2022-12-17T18:32:38;-2.40;99.90
19945;DHT22;10134;50.952;6.930;2022-12-17T18:35:05;-2.40;99.90
19945;DHT22;10134;50.952;6.930;2022-12-17T18:37:33;-2.40;99.90
19945;DHT22;10134;50.952;6.930;2022-12-17T18:40:00;-2.40;99.90
19945;DHT22;10134;50.952;6.930;2022-12-17T18:42:28;-2.40;99.90
19945;DHT22;10134;50.952;6.930;2022-12-17T18:45:14;-2.40;99.90
19945;DHT22;10134;50.952;6.930;2022-12-17T18:47:41;-2.40;99.90